createdAt,value
2023-03-15T00:01:31.169Z,91984.94
2023-03-15T00:03:04.392Z,91988.38
2023-03-15T00:04:38.582Z,91985.41
2023-03-15T00:06:10.270Z,91978.19
2023-03-15T00:07:41.778Z,91978.50
2023-03-15T00:09:13.496Z,91980.69
2023-03-15T00:10:45.758Z,91982.28
2023-03-15T00:12:17.270Z,91987.63
2023-03-15T00:13:48.804Z,91989.19
2023-03-15T00:15:20.878Z,91987.19
2023-03-15T00:16:52.436Z,91988.31
2023-03-15T00:18:23.972Z,91996.19
2023-03-15T00:19:55.441Z,91995.91
2023-03-15T00:21:28.900Z,91992.59
2023-03-15T00:23:00.684Z,92000.38
2023-03-15T00:24:32.255Z,91998.84
2023-03-15T00:26:04.111Z,91993.03
2023-03-15T00:27:35.817Z,91994.00
2023-03-15T00:29:08.113Z,91986.47
2023-03-15T00:30:39.746Z,91988.50
2023-03-15T00:32:11.260Z,91980.47
2023-03-15T00:33:43.002Z,91971.53
2023-03-15T00:35:14.669Z,91972.03
2023-03-15T00:36:46.267Z,91972.81
2023-03-15T00:38:17.746Z,91970.28
2023-03-15T00:39:49.196Z,91967.28
2023-03-15T00:41:21.044Z,91958.97
2023-03-15T00:42:52.706Z,91964.31
2023-03-15T00:44:24.652Z,91963.53
2023-03-15T00:45:56.204Z,91956.28
2023-03-15T00:47:27.741Z,91957.88
2023-03-15T00:48:59.229Z,91951.25
2023-03-15T00:50:30.753Z,91961.34
2023-03-15T00:52:02.234Z,91958.19
2023-03-15T00:53:34.358Z,91961.16
2023-03-15T00:55:06.133Z,91953.63
2023-03-15T00:56:37.826Z,91954.41
2023-03-15T00:58:09.284Z,91948.88
2023-03-15T00:59:40.975Z,91944.31
2023-03-15T01:01:19.174Z,91932.84
2023-03-15T01:02:53.849Z,91942.78
2023-03-15T01:04:25.488Z,91940.88
2023-03-15T01:05:57.164Z,91938.84
2023-03-15T01:07:28.698Z,91937.88
2023-03-15T01:09:01.825Z,91935.34
2023-03-15T01:10:35.024Z,91938.28
2023-03-15T01:12:07.092Z,91940.81
2023-03-15T01:13:38.682Z,91934.69
2023-03-15T01:15:12.034Z,91932.28
2023-03-15T01:16:43.542Z,91928.53
2023-03-15T01:18:15.079Z,91934.88
2023-03-15T01:19:46.599Z,91928.88
2023-03-15T01:21:18.156Z,91932.50
2023-03-15T01:22:49.728Z,91927.00
2023-03-15T01:24:21.461Z,91923.38
2023-03-15T01:25:52.970Z,91923.84
2023-03-15T01:27:24.458Z,91928.38
2023-03-15T01:28:55.935Z,91932.34
2023-03-15T01:30:27.454Z,91921.94
2023-03-15T01:31:58.976Z,91927.94
2023-03-15T01:33:31.270Z,91925.56
2023-03-15T01:35:03.045Z,91929.13
2023-03-15T01:36:34.638Z,91919.06
2023-03-15T01:38:06.364Z,91916.22
2023-03-15T01:39:37.868Z,91909.31
2023-03-15T01:41:09.976Z,91915.75
2023-03-15T01:42:54.517Z,91911.97
2023-03-15T01:44:45.693Z,91906.63
2023-03-15T01:46:29.440Z,91901.91
2023-03-15T01:48:05.803Z,91901.91
2023-03-15T01:54:08.930Z,91896.88
2023-03-15T01:55:40.691Z,91891.22
2023-03-15T01:57:19.750Z,91891.91
2023-03-15T01:58:51.521Z,91885.47
2023-03-15T02:00:23.268Z,91878.03
2023-03-15T02:01:55.085Z,91876.28
2023-03-15T02:03:28.284Z,91881.19
2023-03-15T02:05:01.221Z,91878.50
2023-03-15T02:06:35.234Z,91874.09
2023-03-15T02:08:06.950Z,91869.06
2023-03-15T02:09:42.850Z,91865.16
2023-03-15T02:11:14.450Z,91866.72
2023-03-15T02:12:46.860Z,91862.63
2023-03-15T02:14:18.399Z,91858.69
2023-03-15T02:15:49.932Z,91862.00
2023-03-15T02:17:22.546Z,91859.31
2023-03-15T02:18:54.038Z,91856.47
2023-03-15T02:20:28.199Z,91859.63
2023-03-15T02:22:02.054Z,91851.31
2023-03-15T02:23:33.648Z,91851.00
2023-03-15T02:25:31.452Z,91854.91
2023-03-15T02:27:03.836Z,91856.16
2023-03-15T02:28:35.580Z,91857.09
2023-03-15T02:30:07.410Z,91856.00
2023-03-15T02:31:39.005Z,91862.28
2023-03-15T02:33:16.725Z,91867.47
2023-03-15T02:34:48.303Z,91862.28
2023-03-15T02:36:20.607Z,91857.38
2023-03-15T02:37:52.117Z,91850.75
2023-03-15T02:39:23.878Z,91847.63
2023-03-15T02:40:55.469Z,91847.63
2023-03-15T02:42:26.991Z,91839.31
2023-03-15T02:44:05.819Z,91838.19
2023-03-15T02:45:37.394Z,91838.97
2023-03-15T02:47:10.688Z,91836.47
2023-03-15T02:48:42.209Z,91833.50
2023-03-15T02:50:13.813Z,91838.06
2023-03-15T02:51:45.305Z,91817.47
2023-03-15T02:53:16.896Z,91822.50
2023-03-15T02:54:48.472Z,91818.25
2023-03-15T02:56:20.114Z,91813.88
2023-03-15T02:57:51.650Z,91808.38
2023-03-15T02:59:23.255Z,91799.38
2023-03-15T03:00:54.904Z,91811.81
2023-03-15T03:02:26.608Z,91808.34
2023-03-15T03:03:58.362Z,91799.84
2023-03-15T03:05:29.885Z,91805.81
2023-03-15T03:07:01.351Z,91796.88
2023-03-15T03:08:33.401Z,91797.19
2023-03-15T03:10:05.810Z,91792.47
2023-03-15T03:11:38.035Z,91790.88
2023-03-15T03:13:09.688Z,91788.50
2023-03-15T03:14:43.511Z,91783.66
2023-03-15T03:16:15.407Z,91789.78
2023-03-15T03:17:47.091Z,91785.53
2023-03-15T03:19:18.996Z,91779.72
2023-03-15T03:20:50.588Z,91787.41
2023-03-15T03:22:24.914Z,91788.69
2023-03-15T03:23:56.634Z,91782.56
2023-03-15T03:25:28.433Z,91796.22
2023-03-15T03:27:01.064Z,91790.72
2023-03-15T03:28:33.335Z,91780.81
2023-03-15T03:30:05.631Z,91790.56
2023-03-15T03:31:37.182Z,91784.25
2023-03-15T03:33:08.899Z,91778.13
2023-03-15T03:34:40.896Z,91780.97
2023-03-15T03:36:13.180Z,91781.41
2023-03-15T03:37:44.844Z,91789.72
2023-03-15T03:39:16.818Z,91788.63
2023-03-15T03:40:48.754Z,91780.97
2023-03-15T03:42:20.518Z,91778.91
2023-03-15T03:43:52.002Z,91779.22
2023-03-15T03:45:23.500Z,91776.06
2023-03-15T03:46:55.247Z,91770.72
2023-03-15T03:48:26.760Z,91769.13
2023-03-15T03:49:58.300Z,91771.81
2023-03-15T03:51:29.870Z,91769.31
2023-03-15T03:53:01.563Z,91764.41
2023-03-15T03:54:33.250Z,91772.41
2023-03-15T03:56:05.595Z,91772.72
2023-03-15T03:57:37.323Z,91771.16
2023-03-15T03:59:09.104Z,91767.53
2023-03-15T04:00:41.863Z,91768.13
2023-03-15T04:02:13.398Z,91765.47
2023-03-15T04:03:45.006Z,91763.78
2023-03-15T04:05:16.749Z,91758.72
2023-03-15T04:06:50.755Z,91756.84
2023-03-15T04:08:23.030Z,91765.03
2023-03-15T04:09:54.982Z,91760.63
2023-03-15T04:11:27.070Z,91760.03
2023-03-15T04:12:58.571Z,91762.22
2023-03-15T04:14:30.258Z,91759.22
2023-03-15T04:16:04.138Z,91765.47
2023-03-15T04:17:35.911Z,91765.00
2023-03-15T04:19:07.785Z,91760.75
2023-03-15T04:20:39.618Z,91756.19
2023-03-15T04:22:15.552Z,91761.22
2023-03-15T04:23:47.694Z,91757.78
2023-03-15T04:25:19.742Z,91752.13
2023-03-15T04:26:51.244Z,91762.81
2023-03-15T04:28:23.034Z,91754.78
2023-03-15T04:29:54.592Z,91755.88
2023-03-15T04:31:29.144Z,91762.66
2023-03-15T04:33:03.491Z,91753.38
2023-03-15T04:34:39.022Z,91755.25
2023-03-15T04:36:19.144Z,91750.72
2023-03-15T04:37:51.839Z,91754.16
2023-03-15T04:39:23.847Z,91755.28
2023-03-15T04:40:55.361Z,91755.75
2023-03-15T04:42:27.115Z,91746.66
2023-03-15T04:43:58.757Z,91749.31
2023-03-15T04:45:31.578Z,91751.50
2023-03-15T04:47:03.195Z,91747.56
2023-03-15T04:48:35.075Z,91738.94
2023-03-15T04:50:06.972Z,91738.59
2023-03-15T04:51:38.599Z,91738.75
2023-03-15T04:53:10.312Z,91748.94
2023-03-15T04:54:42.051Z,91751.28
2023-03-15T04:56:13.601Z,91749.56
2023-03-15T04:57:45.392Z,91751.81
2023-03-15T04:59:17.401Z,91742.06
2023-03-15T05:00:48.929Z,91749.44
2023-03-15T05:02:20.754Z,91747.75
2023-03-15T05:03:52.338Z,91754.03
2023-03-15T05:05:24.128Z,91752.31
2023-03-15T05:06:55.705Z,91756.75
2023-03-15T05:08:27.224Z,91761.13
2023-03-15T05:09:58.846Z,91761.59
2023-03-15T05:11:30.393Z,91762.88
2023-03-15T05:13:01.946Z,91765.84
2023-03-15T05:14:33.504Z,91760.50
2023-03-15T05:16:05.124Z,91771.34
2023-03-15T05:17:36.764Z,91771.81
2023-03-15T05:19:08.460Z,91776.66
2023-03-15T05:20:39.972Z,91769.13
2023-03-15T05:22:12.021Z,91756.56
2023-03-15T05:23:43.583Z,91756.09
2023-03-15T05:25:15.509Z,91747.16
2023-03-15T05:26:47.393Z,91747.59
2023-03-15T05:28:18.933Z,91749.31
2023-03-15T05:29:51.522Z,91751.22
2023-03-15T05:31:23.153Z,91762.03
2023-03-15T05:32:54.816Z,91755.94
2023-03-15T05:34:26.362Z,91745.09
2023-03-15T05:35:58.465Z,91733.81
2023-03-15T05:37:30.126Z,91743.09
2023-03-15T05:39:03.380Z,91733.84
2023-03-15T05:40:34.905Z,91731.81
2023-03-15T05:42:06.634Z,91728.03
2023-03-15T05:43:38.138Z,91728.81
2023-03-15T05:45:09.978Z,91730.06
2023-03-15T05:46:41.582Z,91733.06
2023-03-15T05:48:13.262Z,91729.59
2023-03-15T05:49:44.889Z,91732.75
2023-03-15T05:51:16.584Z,91737.00
2023-03-15T05:52:48.067Z,91730.13
2023-03-15T05:54:19.698Z,91732.63
2023-03-15T05:55:51.369Z,91737.34
2023-03-15T05:57:22.880Z,91737.50
2023-03-15T05:58:54.472Z,91734.50
2023-03-15T06:00:26.588Z,91742.84
2023-03-15T06:01:58.090Z,91737.03
2023-03-15T06:03:31.712Z,91735.94
2023-03-15T06:05:03.260Z,91734.50
2023-03-15T06:06:34.886Z,91735.44
2023-03-15T06:08:06.418Z,91731.03
2023-03-15T06:09:37.971Z,91726.47
2023-03-15T06:11:09.652Z,91731.03
2023-03-15T06:12:41.633Z,91727.28
2023-03-15T06:14:13.253Z,91738.25
2023-03-15T06:15:46.488Z,91725.97
2023-03-15T06:17:18.083Z,91729.44
2023-03-15T06:18:49.688Z,91736.50
2023-03-15T06:20:21.337Z,91736.66
2023-03-15T06:21:53.142Z,91735.34
2023-03-15T06:23:24.834Z,91735.31
2023-03-15T06:24:56.662Z,91738.63
2023-03-15T06:26:28.154Z,91731.06
2023-03-15T06:27:59.852Z,91723.50
2023-03-15T06:29:31.498Z,91729.78
2023-03-15T06:31:09.780Z,91725.06
2023-03-15T06:32:41.398Z,91733.34
2023-03-15T06:34:13.005Z,91727.53
2023-03-15T06:35:46.860Z,91724.50
2023-03-15T06:37:28.868Z,91727.31
2023-03-15T06:39:05.894Z,91729.84
2023-03-15T06:40:37.525Z,91740.03
2023-03-15T06:42:09.455Z,91736.50
2023-03-15T06:43:41.360Z,91735.25
2023-03-15T06:45:13.284Z,91733.28
2023-03-15T06:46:45.143Z,91734.34
2023-03-15T06:48:21.654Z,91727.22
2023-03-15T06:50:01.956Z,91727.22
2023-03-15T06:58:02.685Z,91735.75
2023-03-15T06:59:35.257Z,91740.91
2023-03-15T07:01:07.115Z,91746.72
2023-03-15T07:02:39.031Z,91733.78
2023-03-15T07:04:12.339Z,91746.47
2023-03-15T07:05:44.015Z,91737.97
2023-03-15T07:07:15.673Z,91731.63
2023-03-15T07:08:47.389Z,91737.91
2023-03-15T07:10:19.125Z,91732.81
2023-03-15T07:11:50.779Z,91735.50
2023-03-15T07:13:22.415Z,91736.41
2023-03-15T07:14:54.135Z,91737.34
2023-03-15T07:16:28.696Z,91739.69
2023-03-15T07:18:01.180Z,91741.53
2023-03-15T07:19:33.833Z,91741.38
2023-03-15T07:21:07.729Z,91750.84
2023-03-15T07:22:39.751Z,91745.81
2023-03-15T07:24:11.319Z,91749.91
2023-03-15T07:25:54.381Z,91739.88
2023-03-15T07:27:26.726Z,91741.13
2023-03-15T07:28:58.555Z,91744.38
2023-03-15T07:30:30.365Z,91743.75
2023-03-15T07:32:02.711Z,91742.34
2023-03-15T07:33:36.972Z,91748.72
2023-03-15T07:35:11.589Z,91753.31
2023-03-15T07:36:44.806Z,91751.63
2023-03-15T07:38:16.562Z,91748.63
2023-03-15T07:39:48.777Z,91745.50
2023-03-15T07:41:20.883Z,91747.56
2023-03-15T07:42:52.493Z,91758.56
2023-03-15T07:44:24.325Z,91754.50
2023-03-15T07:45:56.069Z,91751.84
2023-03-15T07:47:27.691Z,91747.34
2023-03-15T07:48:59.553Z,91747.66
2023-03-15T07:50:31.268Z,91740.78
2023-03-15T07:52:04.371Z,91746.47
2023-03-15T07:53:36.892Z,91737.91
2023-03-15T07:55:09.491Z,91742.28
2023-03-15T07:56:41.456Z,91736.53
2023-03-15T07:58:15.627Z,91733.41
2023-03-15T07:59:49.400Z,91741.13
2023-03-15T08:01:25.388Z,91735.13
2023-03-15T08:03:01.682Z,91739.19
2023-03-15T08:04:35.806Z,91734.88
2023-03-15T08:06:09.005Z,91737.81
2023-03-15T08:07:40.926Z,91740.28
2023-03-15T08:09:13.126Z,91735.59
2023-03-15T08:10:45.081Z,91738.28
2023-03-15T08:12:16.744Z,91738.53
2023-03-15T08:13:48.336Z,91744.50
2023-03-15T08:15:20.160Z,91750.28
2023-03-15T08:16:51.840Z,91751.81
2023-03-15T08:18:24.876Z,91752.72
2023-03-15T08:19:56.536Z,91753.97
2023-03-15T08:21:28.252Z,91756.72
2023-03-15T08:23:00.333Z,91757.84
2023-03-15T08:24:32.209Z,91759.88
2023-03-15T08:26:04.021Z,91751.47
2023-03-15T08:27:36.163Z,91756.19
2023-03-15T08:29:08.091Z,91751.47
2023-03-15T08:30:40.138Z,91753.72
2023-03-15T08:32:12.100Z,91759.09
2023-03-15T08:33:44.005Z,91757.19
2023-03-15T08:35:16.664Z,91755.25
2023-03-15T08:36:49.016Z,91754.50
2023-03-15T08:38:21.091Z,91756.03
2023-03-15T08:40:01.090Z,91758.16
2023-03-15T08:41:33.140Z,91763.13
2023-03-15T08:43:05.079Z,91758.56
2023-03-15T08:44:37.157Z,91753.66
2023-03-15T08:46:13.892Z,91751.09
2023-03-15T08:47:46.871Z,91741.41
2023-03-15T08:49:28.253Z,91748.28
2023-03-15T08:51:07.661Z,91749.06
2023-03-15T08:52:54.050Z,91738.19
2023-03-15T08:54:27.689Z,91743.22
2023-03-15T08:55:59.579Z,91731.06
2023-03-15T08:57:33.257Z,91730.28
2023-03-15T08:59:05.895Z,91727.25
2023-03-15T09:00:38.370Z,91728.84
2023-03-15T09:02:11.614Z,91729.84
2023-03-15T09:03:43.354Z,91733.56
2023-03-15T09:05:16.265Z,91733.47
2023-03-15T09:06:48.003Z,91735.53
2023-03-15T09:08:21.619Z,91732.88
2023-03-15T09:09:54.545Z,91730.22
2023-03-15T09:11:26.804Z,91731.13
2023-03-15T09:12:58.870Z,91728.78
2023-03-15T09:14:30.638Z,91728.88
2023-03-15T09:16:03.864Z,91720.47
2023-03-15T09:17:35.710Z,91722.63
2023-03-15T09:19:07.596Z,91718.56
2023-03-15T09:20:39.906Z,91718.56
2023-03-15T09:22:17.230Z,91714.22
2023-03-15T09:23:55.635Z,91717.34
2023-03-15T09:25:28.206Z,91719.25
2023-03-15T09:27:00.083Z,91714.88
2023-03-15T09:28:32.160Z,91717.34
2023-03-15T09:30:03.881Z,91721.06
2023-03-15T09:31:35.596Z,91723.75
2023-03-15T09:33:08.030Z,91718.47
2023-03-15T09:34:42.259Z,91722.41
2023-03-15T09:36:14.078Z,91713.22
2023-03-15T09:37:46.160Z,91714.13
2023-03-15T09:39:17.788Z,91717.81
2023-03-15T09:40:49.675Z,91715.34
2023-03-15T09:42:34.636Z,91716.00
2023-03-15T09:44:06.255Z,91723.63
2023-03-15T09:45:40.983Z,91726.63
2023-03-15T09:47:18.628Z,91718.69
2023-03-15T09:48:59.713Z,91723.16
2023-03-15T09:50:55.413Z,91718.09
2023-03-15T09:52:29.675Z,91730.31
2023-03-15T09:54:01.380Z,91734.59
2023-03-15T09:55:33.345Z,91728.94
2023-03-15T09:57:06.236Z,91737.47
2023-03-15T09:58:37.798Z,91730.31
2023-03-15T10:00:13.472Z,91739.25
2023-03-15T10:01:45.495Z,91736.91
2023-03-15T10:03:25.572Z,91739.59
2023-03-15T10:05:01.376Z,91741.53
2023-03-15T10:06:37.892Z,91739.16
2023-03-15T10:08:13.311Z,91740.59
2023-03-15T10:09:44.915Z,91741.84
2023-03-15T10:11:29.052Z,91736.16
2023-03-15T10:13:08.770Z,91741.84
2023-03-15T10:14:40.315Z,91745.84
2023-03-15T10:16:29.349Z,91744.50
2023-03-15T10:18:21.298Z,91741.09
2023-03-15T10:19:53.794Z,91742.03
2023-03-15T10:21:28.575Z,91737.22
2023-03-15T10:23:04.223Z,91749.38
2023-03-15T10:24:44.736Z,91747.66
2023-03-15T10:26:17.435Z,91754.56
2023-03-15T10:27:52.590Z,91752.41
2023-03-15T10:29:25.362Z,91754.38
2023-03-15T10:30:57.856Z,91756.78
2023-03-15T10:32:31.030Z,91749.28
2023-03-15T10:34:03.389Z,91747.56
2023-03-15T10:35:34.998Z,91746.44
2023-03-15T10:37:08.767Z,91744.38
2023-03-15T10:38:41.958Z,91738.75
2023-03-15T10:40:16.801Z,91742.53
2023-03-15T10:41:48.980Z,91742.69
2023-03-15T10:43:22.098Z,91748.63
2023-03-15T10:44:53.921Z,91748.34
2023-03-15T10:46:25.526Z,91744.94
2023-03-15T10:48:00.605Z,91742.53
2023-03-15T10:49:39.449Z,91742.47
2023-03-15T10:51:21.204Z,91729.19
2023-03-15T10:52:55.048Z,91731.34
2023-03-15T10:54:27.260Z,91738.06
2023-03-15T10:56:00.388Z,91733.69
2023-03-15T10:57:34.303Z,91744.94
2023-03-15T10:59:12.729Z,91735.06
2023-03-15T11:00:49.390Z,91732.38
2023-03-15T11:02:24.671Z,91738.53
2023-03-15T11:04:03.501Z,91739.47
2023-03-15T11:05:42.374Z,91733.81
2023-03-15T11:07:14.336Z,91741.97
2023-03-15T11:08:46.146Z,91737.31
2023-03-15T11:10:21.663Z,91732.00
2023-03-15T11:12:00.901Z,91736.28
2023-03-15T11:13:33.650Z,91731.75
2023-03-15T11:15:08.078Z,91731.63
2023-03-15T11:16:40.204Z,91728.28
2023-03-15T11:18:17.203Z,91726.16
2023-03-15T11:19:59.533Z,91727.19
2023-03-15T11:21:34.843Z,91713.53
2023-03-15T11:23:13.737Z,91719.03
2023-03-15T11:24:45.288Z,91711.66
2023-03-15T11:26:32.272Z,91705.28
2023-03-15T11:28:04.778Z,91702.00
2023-03-15T11:29:37.576Z,91708.97
2023-03-15T11:31:09.279Z,91708.97
2023-03-15T11:32:40.977Z,91706.72
2023-03-15T11:34:21.617Z,91715.13
2023-03-15T11:35:58.553Z,91700.56
2023-03-15T11:37:37.481Z,91701.22
2023-03-15T11:39:36.738Z,91692.72
2023-03-15T11:41:31.810Z,91687.47
2023-03-15T11:43:05.827Z,91691.50
2023-03-15T11:44:40.847Z,91689.47
2023-03-15T11:46:17.752Z,91696.09
2023-03-15T11:47:51.577Z,91692.50
2023-03-15T11:49:42.083Z,91686.78
2023-03-15T11:51:14.065Z,91691.25
2023-03-15T11:52:53.696Z,91682.63
2023-03-15T11:54:27.494Z,91698.19
2023-03-15T11:58:35.252Z,91699.38
2023-03-15T12:00:25.557Z,91692.66
2023-03-15T12:02:10.815Z,91686.50
2023-03-15T12:03:43.384Z,91677.75
2023-03-15T12:05:35.020Z,91684.69
2023-03-15T12:07:09.563Z,91681.78
2023-03-15T12:08:42.453Z,91674.53
2023-03-15T12:10:20.928Z,91674.97
2023-03-15T12:11:52.546Z,91676.53
2023-03-15T12:13:28.732Z,91678.78
2023-03-15T12:15:08.966Z,91675.63
2023-03-15T12:16:45.556Z,91671.31
2023-03-15T12:18:18.854Z,91669.41
2023-03-15T12:20:00.186Z,91670.19
2023-03-15T12:21:32.664Z,91669.84
2023-03-15T12:23:19.589Z,91664.47
2023-03-15T12:24:51.151Z,91672.53
2023-03-15T12:26:25.243Z,91679.78
2023-03-15T12:27:57.104Z,91685.06
2023-03-15T12:29:29.030Z,91678.78
2023-03-15T12:31:02.250Z,91683.59
2023-03-15T12:32:36.609Z,91674.13
2023-03-15T12:34:15.370Z,91675.66
2023-03-15T12:43:10.474Z,91688.88
2023-03-15T12:44:43.284Z,91683.91
2023-03-15T12:46:33.732Z,91681.50
2023-03-15T12:48:14.336Z,91685.00
2023-03-15T12:49:46.489Z,91672.84
2023-03-15T12:51:33.904Z,91682.41
2023-03-15T12:53:13.231Z,91673.72
2023-03-15T12:54:49.255Z,91681.44
2023-03-15T12:56:32.854Z,91684.44
2023-03-15T12:58:04.863Z,91692.63
2023-03-15T12:59:36.849Z,91684.22
2023-03-15T13:01:09.376Z,91684.81
2023-03-15T13:02:45.321Z,91675.22
2023-03-15T13:04:17.078Z,91676.66
2023-03-15T13:06:02.851Z,91671.16
2023-03-15T13:07:50.206Z,91680.19
2023-03-15T13:09:34.376Z,91682.16
2023-03-15T13:11:18.391Z,91689.72
2023-03-15T13:12:51.994Z,91681.22
2023-03-15T13:14:23.605Z,91682.78
2023-03-15T13:16:12.694Z,91687.50
2023-03-15T13:17:50.438Z,91678.22
2023-03-15T13:19:25.454Z,91686.44
2023-03-15T13:21:17.211Z,91687.56
2023-03-15T13:23:04.108Z,91686.09
2023-03-15T13:25:14.568Z,91686.84
2023-03-15T13:26:49.166Z,91680.19
2023-03-15T13:28:39.980Z,91687.91
2023-03-15T13:30:20.981Z,91689.47
2023-03-15T13:32:10.945Z,91693.41
2023-03-15T13:33:42.708Z,91692.25
2023-03-15T13:35:14.427Z,91687.13
2023-03-15T13:36:47.526Z,91690.38
2023-03-15T13:38:22.770Z,91683.81
2023-03-15T13:39:54.560Z,91686.22
2023-03-15T13:41:27.160Z,91693.06
2023-03-15T13:43:00.317Z,91699.72
2023-03-15T13:44:32.069Z,91701.97
2023-03-15T13:46:03.919Z,91698.09
2023-03-15T13:47:36.084Z,91706.78
2023-03-15T13:49:08.097Z,91698.44
2023-03-15T13:50:40.133Z,91701.75
2023-03-15T13:52:15.028Z,91698.56
2023-03-15T13:53:50.112Z,91699.81
2023-03-15T13:55:22.745Z,91695.72
2023-03-15T13:56:55.847Z,91698.84
2023-03-15T13:58:27.435Z,91699.59
2023-03-15T14:00:00.951Z,91702.63
2023-03-15T14:01:35.726Z,91700.41
2023-03-15T14:03:07.758Z,91705.25
2023-03-15T14:04:39.385Z,91702.75
2023-03-15T14:06:14.184Z,91706.63
2023-03-15T14:07:46.663Z,91700.53
2023-03-15T14:09:22.516Z,91699.34
2023-03-15T14:11:25.822Z,91699.22
2023-03-15T14:18:23.692Z,91701.91
2023-03-15T14:19:57.264Z,91700.47
2023-03-15T14:21:31.345Z,91697.19
2023-03-15T14:23:04.130Z,91700.31
2023-03-15T14:24:37.061Z,91698.91
2023-03-15T14:26:13.862Z,91702.38
2023-03-15T14:27:45.533Z,91705.34
2023-03-15T14:29:18.223Z,91697.16
2023-03-15T14:30:56.786Z,91694.44
2023-03-15T14:32:35.636Z,91689.41
2023-03-15T14:34:30.020Z,91686.41
2023-03-15T14:36:03.023Z,91686.22
2023-03-15T14:37:37.536Z,91688.25
2023-03-15T14:39:18.755Z,91688.41
2023-03-15T14:40:51.776Z,91679.84
2023-03-15T14:42:23.364Z,91680.00
2023-03-15T14:43:55.042Z,91683.59
2023-03-15T14:45:27.612Z,91682.00
2023-03-15T14:46:59.451Z,91681.81
2023-03-15T14:48:32.192Z,91681.47
2023-03-15T14:50:03.937Z,91681.16
2023-03-15T14:51:35.573Z,91683.63
2023-03-15T14:53:07.877Z,91684.09
2023-03-15T14:54:39.753Z,91686.16
2023-03-15T14:56:12.319Z,91683.28
2023-03-15T14:57:44.018Z,91684.19
2023-03-15T14:59:15.599Z,91682.78
2023-03-15T15:00:48.084Z,91686.09
2023-03-15T15:02:19.941Z,91689.41
2023-03-15T15:03:55.431Z,91684.06
2023-03-15T15:05:27.039Z,91687.97
2023-03-15T15:06:58.796Z,91684.84
2023-03-15T15:08:30.492Z,91676.38
2023-03-15T15:10:02.304Z,91680.16
2023-03-15T15:11:33.961Z,91687.41
2023-03-15T15:13:07.112Z,91683.78
2023-03-15T15:14:39.093Z,91683.00
2023-03-15T15:16:11.087Z,91683.16
2023-03-15T15:17:42.839Z,91689.28
2023-03-15T15:19:14.582Z,91686.63
2023-03-15T15:20:46.534Z,91686.94
2023-03-15T15:22:22.483Z,91683.63
2023-03-15T15:23:58.787Z,91679.59
2023-03-15T15:25:31.055Z,91687.16
2023-03-15T15:27:02.782Z,91695.38
2023-03-15T15:28:37.232Z,91688.78
2023-03-15T15:30:16.304Z,91693.97
2023-03-15T15:31:48.300Z,91691.16
2023-03-15T15:41:33.934Z,91698.00
2023-03-15T15:43:09.999Z,91689.41
2023-03-15T15:44:42.354Z,91696.69
2023-03-15T15:46:14.233Z,91706.28
2023-03-15T15:47:45.887Z,91700.13
2023-03-15T15:49:18.265Z,91706.59
2023-03-15T15:50:49.850Z,91711.63
2023-03-15T15:52:22.959Z,91712.09
2023-03-15T15:53:58.239Z,91713.97
2023-03-15T15:55:34.913Z,91715.72
2023-03-15T16:08:08.306Z,91722.50
2023-03-15T16:09:46.016Z,91718.56
2023-03-15T16:11:17.750Z,91720.31
2023-03-15T16:12:49.835Z,91724.09
2023-03-15T16:14:21.582Z,91722.72
2023-03-15T16:15:53.971Z,91719.25
2023-03-15T16:17:25.666Z,91717.81
2023-03-15T16:18:57.237Z,91720.63
2023-03-15T16:20:28.859Z,91720.81
2023-03-15T16:22:00.722Z,91723.28
2023-03-15T16:23:32.271Z,91725.03
2023-03-15T16:25:05.048Z,91726.75
2023-03-15T16:26:37.289Z,91727.69
2023-03-15T16:28:09.184Z,91730.97
2023-03-15T16:29:44.557Z,91727.84
2023-03-15T16:31:16.490Z,91728.50
2023-03-15T16:32:48.330Z,91731.78
2023-03-15T16:34:20.801Z,91728.63
2023-03-15T16:35:53.246Z,91736.22
2023-03-15T16:37:25.881Z,91732.28
2023-03-15T16:38:57.438Z,91736.84
2023-03-15T16:40:29.778Z,91738.41
2023-03-15T16:42:01.664Z,91731.31
2023-03-15T16:43:33.199Z,91735.56
2023-03-15T16:45:14.106Z,91729.75
2023-03-15T16:46:45.886Z,91726.56
2023-03-15T16:48:17.528Z,91734.75
2023-03-15T16:49:49.118Z,91737.44
2023-03-15T16:51:20.778Z,91728.31
2023-03-15T16:52:52.984Z,91725.47
2023-03-15T16:54:40.219Z,91735.38
2023-03-15T16:56:13.378Z,91734.91
2023-03-15T16:57:45.054Z,91733.03
2023-03-15T16:59:17.008Z,91738.22
2023-03-15T17:00:48.747Z,91735.66
2023-03-15T17:02:24.799Z,91737.09
2023-03-15T17:03:56.359Z,91736.78
2023-03-15T17:05:28.046Z,91731.56
2023-03-15T17:06:59.680Z,91740.38
2023-03-15T17:08:31.611Z,91734.22
2023-03-15T17:10:07.874Z,91737.56
2023-03-15T17:11:39.675Z,91745.59
2023-03-15T17:13:12.527Z,91742.44
2023-03-15T17:14:44.567Z,91746.22
2023-03-15T17:16:16.977Z,91746.69
2023-03-15T17:17:48.796Z,91750.47
2023-03-15T17:19:20.384Z,91747.31
2023-03-15T17:20:52.104Z,91749.38
2023-03-15T17:22:23.719Z,91746.38
2023-03-15T17:23:55.308Z,91750.94
2023-03-15T17:25:26.980Z,91753.63
2023-03-15T17:26:58.726Z,91752.66
2023-03-15T17:28:31.083Z,91750.31
2023-03-15T17:30:02.791Z,91761.00
2023-03-15T17:31:34.680Z,91753.63
2023-03-15T17:33:06.600Z,91751.59
2023-03-15T17:34:38.442Z,91749.56
2023-03-15T17:36:13.311Z,91752.22
2023-03-15T17:37:45.062Z,91756.78
2023-03-15T17:39:16.943Z,91757.41
2023-03-15T17:40:48.599Z,91763.06
2023-03-15T17:42:20.599Z,91761.97
2023-03-15T17:43:52.742Z,91752.53
2023-03-15T17:45:25.330Z,91757.56
2023-03-15T17:46:56.886Z,91763.41
2023-03-15T17:48:28.566Z,91756.94
2023-03-15T17:50:00.909Z,91759.16
2023-03-15T17:51:33.157Z,91759.00
2023-03-15T17:53:05.812Z,91757.72
2023-03-15T17:54:37.420Z,91755.56
2023-03-15T17:56:09.618Z,91760.75
2023-03-15T17:57:45.798Z,91764.50
2023-03-15T17:59:23.957Z,91771.31
2023-03-15T18:00:55.761Z,91763.13
2023-03-15T18:02:27.335Z,91767.19
2023-03-15T18:03:59.745Z,91770.19
2023-03-15T18:05:31.481Z,91764.84
2023-03-15T18:07:03.015Z,91771.75
2023-03-15T18:08:34.602Z,91778.22
2023-03-15T18:10:06.487Z,91781.06
2023-03-15T18:11:40.342Z,91783.41
2023-03-15T18:13:17.871Z,91784.19
2023-03-15T18:14:49.664Z,91780.25
2023-03-15T18:16:21.380Z,91782.78
2023-03-15T18:17:53.066Z,91785.47
2023-03-15T18:19:25.413Z,91788.59
2023-03-15T18:20:57.039Z,91792.22
2023-03-15T18:22:28.583Z,91796.16
2023-03-15T18:24:00.181Z,91794.28
2023-03-15T18:25:32.757Z,91798.22
2023-03-15T18:27:04.484Z,91793.31
2023-03-15T18:28:36.116Z,91795.97
2023-03-15T18:30:08.192Z,91795.69
2023-03-15T18:31:40.704Z,91793.78
2023-03-15T18:33:12.271Z,91796.63
2023-03-15T18:34:43.880Z,91799.78
2023-03-15T18:36:15.445Z,91794.13
2023-03-15T18:37:47.101Z,91799.47
2023-03-15T18:39:18.748Z,91797.59
2023-03-15T18:40:51.872Z,91797.41
2023-03-15T18:42:23.472Z,91788.75
2023-03-15T18:43:55.013Z,91792.38
2023-03-15T18:45:27.556Z,91787.50
2023-03-15T18:46:59.068Z,91791.41
2023-03-15T18:48:39.981Z,91791.25
2023-03-15T18:50:12.800Z,91793.63
2023-03-15T18:51:44.464Z,91793.31
2023-03-15T18:53:15.971Z,91798.19
2023-03-15T18:54:47.465Z,91801.50
2023-03-15T18:56:19.892Z,91801.66
2023-03-15T18:57:52.138Z,91800.88
2023-03-15T18:59:25.832Z,91801.97
2023-03-15T19:00:57.523Z,91805.44
2023-03-15T19:02:29.744Z,91807.63
2023-03-15T19:04:01.329Z,91808.72
2023-03-15T19:05:33.836Z,91806.84
2023-03-15T19:07:05.563Z,91806.06